Terminal Aerodrome Forecast
Issued by NWS Shreveport, LA

Home | Current Version | Previous Version | Text Only | Print | Product List | Glossary On
Versions: 1 2 3 4 5 6 7 8 9 10 11 12 13 14 15 16 17 18 19 20 21 22 23 24 25
000
FTUS44 KSHV 270554
TAFSHV
TAF
KSHV 270554Z 2706/2806 07007KT P6SM VCSH SCT050 BKN150 OVC250
      TEMPO 2707/2709 BKN020
     FM270900 06010G15KT 5SM -SHRA VCTS BKN020CB OVC030
     FM271200 06012G18KT 2SM TSRA BR OVC010CB
     FM271500 08013G19KT 5SM -SHRA VCTS BKN015CB OVC025
     FM271700 09014G20KT P6SM VCSH BKN020 OVC030
     FM280000 07012KT 5SM -SHRA VCTS BKN015CB OVC025=

USA.gov is the U.S. government's official web portal to all federal, state and local government web resources and services.